createdAt,value
2023-05-21T00:01:42.127Z,68.13
2023-05-21T00:04:09.099Z,68.54
2023-05-21T00:06:42.005Z,69.04
2023-05-21T00:09:10.419Z,69.35
2023-05-21T00:11:38.990Z,69.73
2023-05-21T00:14:05.916Z,69.98
2023-05-21T00:16:33.299Z,70.21
2023-05-21T00:19:02.214Z,70.61
2023-05-21T00:21:31.276Z,71.14
2023-05-21T00:23:58.300Z,71.19
2023-05-21T00:26:25.802Z,71.26
2023-05-21T00:28:53.547Z,71.46
2023-05-21T00:31:21.265Z,71.65
2023-05-21T00:33:48.285Z,71.81
2023-05-21T00:36:16.190Z,72.11
2023-05-21T00:38:43.685Z,72.20
2023-05-21T00:41:10.621Z,72.46
2023-05-21T00:43:39.896Z,72.64
2023-05-21T00:46:08.323Z,72.60
2023-05-21T00:48:35.226Z,72.71
2023-05-21T00:51:02.028Z,72.64
2023-05-21T00:53:29.643Z,72.74
2023-05-21T00:56:02.473Z,72.87
2023-05-21T00:58:35.864Z,72.83
2023-05-21T01:01:03.486Z,72.89
2023-05-21T01:03:38.033Z,72.62
2023-05-21T01:06:05.529Z,72.64
2023-05-21T01:08:34.413Z,72.49
2023-05-21T01:11:07.154Z,72.57
2023-05-21T01:13:36.512Z,72.58
2023-05-21T01:16:05.997Z,72.36
2023-05-21T01:18:34.723Z,72.13
2023-05-21T01:21:01.972Z,72.18
2023-05-21T01:23:28.952Z,71.97
2023-05-21T01:25:56.653Z,71.96
2023-05-21T01:28:24.258Z,71.92
2023-05-21T01:30:51.095Z,71.71
2023-05-21T01:33:26.419Z,71.66
2023-05-21T01:36:03.706Z,71.70
2023-05-21T01:38:36.515Z,71.74
2023-05-21T01:41:07.845Z,71.56
2023-05-21T01:43:43.035Z,71.56
2023-05-21T01:46:10.733Z,71.48
2023-05-21T01:48:38.130Z,71.36
2023-05-21T01:51:10.506Z,71.30
2023-05-21T01:53:40.595Z,71.31
2023-05-21T01:56:07.647Z,71.19
2023-05-21T01:58:35.784Z,71.20
2023-05-21T02:01:04.048Z,71.03
2023-05-21T02:03:31.323Z,71.09
2023-05-21T02:05:58.593Z,71.01
2023-05-21T02:08:26.913Z,71.12
2023-05-21T02:10:55.050Z,71.34
2023-05-21T02:13:24.971Z,71.62
2023-05-21T02:15:54.182Z,71.72
2023-05-21T02:18:21.556Z,71.88
2023-05-21T02:20:48.581Z,72.02
2023-05-21T02:23:15.595Z,72.29
2023-05-21T02:25:43.789Z,72.45
2023-05-21T02:28:12.274Z,72.52
2023-05-21T02:30:39.836Z,72.81
2023-05-21T02:33:08.655Z,72.91
2023-05-21T02:35:36.099Z,72.86
2023-05-21T02:38:03.349Z,72.97
2023-05-21T02:40:32.800Z,72.89
2023-05-21T02:43:00.118Z,72.81
2023-05-21T02:45:28.189Z,72.64
2023-05-21T02:47:55.643Z,72.74
2023-05-21T02:50:22.884Z,72.85
2023-05-21T02:52:55.860Z,73.02
2023-05-21T02:55:22.867Z,72.84
2023-05-21T02:57:51.015Z,73.08
2023-05-21T03:00:17.969Z,73.08
2023-05-21T03:02:45.563Z,73.00
2023-05-21T03:05:12.886Z,72.95
2023-05-21T03:07:42.107Z,72.95
2023-05-21T03:10:10.275Z,72.60
2023-05-21T03:12:38.781Z,72.63
2023-05-21T03:15:06.131Z,72.36
2023-05-21T03:17:39.059Z,72.34
2023-05-21T03:20:08.297Z,72.14
2023-05-21T03:22:37.062Z,71.73
2023-05-21T03:25:04.330Z,71.65
2023-05-21T03:27:31.578Z,71.57
2023-05-21T03:29:58.847Z,71.69
2023-05-21T03:32:26.389Z,71.61
2023-05-21T03:34:53.946Z,71.93
2023-05-21T03:37:20.939Z,71.98
2023-05-21T03:39:47.989Z,72.25
2023-05-21T03:42:20.054Z,72.10
2023-05-21T03:44:52.920Z,72.08
2023-05-21T03:47:52.574Z,71.91
2023-05-21T03:50:19.843Z,71.49
2023-05-21T03:52:47.194Z,71.02
2023-05-21T03:55:14.151Z,70.90
2023-05-21T03:57:47.629Z,70.61
2023-05-21T04:00:20.112Z,70.09
2023-05-21T04:02:48.091Z,70.31
2023-05-21T04:05:16.489Z,70.71
2023-05-21T04:07:49.810Z,70.77
2023-05-21T04:10:17.002Z,70.75
2023-05-21T04:12:44.094Z,70.25
2023-05-21T04:15:12.064Z,69.75
2023-05-21T04:17:40.109Z,69.46
2023-05-21T04:20:07.860Z,69.08
2023-05-21T04:22:36.238Z,69.18
2023-05-21T04:25:03.317Z,69.19
2023-05-21T04:27:36.353Z,69.22
2023-05-21T04:30:03.837Z,69.32
2023-05-21T04:32:33.015Z,69.25
2023-05-21T04:35:01.591Z,69.36
2023-05-21T04:37:29.580Z,69.33
2023-05-21T04:39:57.865Z,69.31
2023-05-21T04:42:32.414Z,68.85
2023-05-21T04:45:00.304Z,68.55
2023-05-21T04:47:29.763Z,68.05
2023-05-21T04:49:56.652Z,67.37
2023-05-21T04:52:24.567Z,66.92
2023-05-21T04:54:53.547Z,66.41
2023-05-21T04:57:21.392Z,65.38
2023-05-21T04:59:49.021Z,64.69
2023-05-21T05:02:16.194Z,63.84
2023-05-21T05:04:43.760Z,63.41
2023-05-21T05:07:11.798Z,63.15
2023-05-21T05:09:39.232Z,62.73
2023-05-21T05:12:06.773Z,61.87
2023-05-21T05:14:34.121Z,61.69
2023-05-21T05:17:01.157Z,61.04
2023-05-21T05:19:29.083Z,60.49
2023-05-21T05:21:56.391Z,60.30
2023-05-21T05:24:24.547Z,59.61
2023-05-21T05:26:57.119Z,59.40
2023-05-21T05:29:25.040Z,58.93
2023-05-21T05:31:57.951Z,59.06
2023-05-21T05:34:24.836Z,58.64
2023-05-21T05:36:52.670Z,58.80
2023-05-21T05:39:19.687Z,59.02
2023-05-21T05:41:47.149Z,58.42
2023-05-21T05:44:14.212Z,57.73
2023-05-21T05:46:43.484Z,57.98
2023-05-21T05:49:11.146Z,57.60
2023-05-21T05:51:40.556Z,57.15
2023-05-21T05:54:08.010Z,56.72
2023-05-21T05:56:36.089Z,56.73
2023-05-21T05:59:04.550Z,56.52
2023-05-21T06:01:34.907Z,56.99
2023-05-21T06:04:01.820Z,57.03
2023-05-21T06:06:36.298Z,57.55
2023-05-21T06:09:03.441Z,58.08
2023-05-21T06:11:30.712Z,57.77
2023-05-21T06:14:01.108Z,58.20
2023-05-21T06:16:30.855Z,58.54
2023-05-21T06:18:58.119Z,58.98
2023-05-21T06:21:25.377Z,59.03
2023-05-21T06:23:53.067Z,58.86
2023-05-21T06:26:21.430Z,58.69
2023-05-21T06:28:49.365Z,59.34
2023-05-21T06:31:16.448Z,59.56
2023-05-21T06:33:43.700Z,59.77
2023-05-21T06:36:11.158Z,60.35
2023-05-21T06:38:39.484Z,60.72
2023-05-21T06:41:06.430Z,60.72
2023-05-21T06:43:47.924Z,61.12
2023-05-21T06:46:38.284Z,61.51
2023-05-21T06:49:07.847Z,61.47
2023-05-21T06:51:35.473Z,61.17
2023-05-21T06:54:03.607Z,61.28
2023-05-21T06:56:36.188Z,61.12
2023-05-21T06:59:03.204Z,61.02
2023-05-21T07:01:30.462Z,61.03
2023-05-21T07:03:57.437Z,61.23
2023-05-21T07:06:25.891Z,62.31
2023-05-21T07:08:53.314Z,63.32
2023-05-21T07:11:21.180Z,63.76
2023-05-21T07:13:48.328Z,63.58
2023-05-21T07:16:17.279Z,63.49
2023-05-21T07:18:44.504Z,63.51
2023-05-21T07:21:12.419Z,63.86
2023-05-21T07:23:39.889Z,63.72
2023-05-21T07:26:19.450Z,63.62
2023-05-21T07:28:46.421Z,63.53
2023-05-21T07:31:13.435Z,63.49
2023-05-21T07:33:44.416Z,63.26
2023-05-21T07:36:11.697Z,62.95
2023-05-21T07:38:43.762Z,62.55
2023-05-21T07:41:17.799Z,62.44
2023-05-21T07:43:46.435Z,62.09
2023-05-21T07:46:14.265Z,62.16
2023-05-21T07:48:43.721Z,61.76
2023-05-21T07:51:11.164Z,61.73
2023-05-21T07:53:38.319Z,61.29
2023-05-21T07:56:07.560Z,60.98
2023-05-21T07:58:35.658Z,60.89
2023-05-21T08:01:02.743Z,60.87
2023-05-21T08:03:30.545Z,60.35
2023-05-21T08:05:57.971Z,60.07
2023-05-21T08:08:25.512Z,59.66
2023-05-21T08:10:54.080Z,59.15
2023-05-21T08:13:21.480Z,59.27
2023-05-21T08:15:50.562Z,58.70
2023-05-21T08:18:20.048Z,58.57
2023-05-21T08:20:47.822Z,58.25
2023-05-21T08:23:15.909Z,58.12
2023-05-21T08:25:48.436Z,58.36
2023-05-21T08:28:15.567Z,58.55
2023-05-21T08:30:42.532Z,58.09
2023-05-21T08:33:09.617Z,57.41
2023-05-21T08:35:36.703Z,57.13
2023-05-21T08:38:20.261Z,56.68
2023-05-21T08:41:03.837Z,56.74
2023-05-21T08:43:30.889Z,56.82
2023-05-21T08:46:00.967Z,56.20
2023-05-21T08:48:37.911Z,55.93
2023-05-21T08:51:05.971Z,55.52
2023-05-21T08:53:36.634Z,55.20
2023-05-21T08:56:14.325Z,54.36
2023-05-21T08:58:45.889Z,53.91
2023-05-21T09:01:14.028Z,53.19
2023-05-21T09:03:43.200Z,52.64
2023-05-21T09:06:15.233Z,51.97
2023-05-21T09:08:45.881Z,51.31
2023-05-21T09:11:21.935Z,49.54
2023-05-21T09:13:53.813Z,49.06
2023-05-21T09:16:28.061Z,47.62
2023-05-21T09:18:55.242Z,46.48
2023-05-21T09:21:30.880Z,45.89
2023-05-21T09:24:06.265Z,44.32
2023-05-21T09:26:33.668Z,43.72
2023-05-21T09:29:03.195Z,43.39
2023-05-21T09:31:32.389Z,42.81
2023-05-21T09:34:00.771Z,41.65
2023-05-21T09:36:28.953Z,40.50
2023-05-21T09:38:57.862Z,39.26
2023-05-21T09:41:35.233Z,38.30
2023-05-21T09:44:07.678Z,37.29
2023-05-21T09:46:39.919Z,36.04
2023-05-21T09:49:07.705Z,35.46
2023-05-21T09:51:37.964Z,34.61
2023-05-21T09:54:04.858Z,34.04
2023-05-21T09:56:31.932Z,33.33
2023-05-21T09:59:00.877Z,32.85
2023-05-21T10:01:30.982Z,32.04
2023-05-21T10:03:59.311Z,31.82
2023-05-21T10:06:27.475Z,31.04
2023-05-21T10:08:58.775Z,31.19
2023-05-21T10:11:28.327Z,30.12
2023-05-21T10:13:58.349Z,29.58
2023-05-21T10:16:25.777Z,29.51
2023-05-21T10:18:53.766Z,29.25
2023-05-21T10:21:27.207Z,29.06
2023-05-21T10:23:56.837Z,28.91
2023-05-21T10:26:24.128Z,28.74
2023-05-21T10:28:51.650Z,28.53
2023-05-21T10:31:23.874Z,27.85
2023-05-21T10:33:52.955Z,27.41
2023-05-21T10:36:21.283Z,26.87
2023-05-21T10:38:48.182Z,26.69
2023-05-21T10:41:18.630Z,26.74
2023-05-21T10:43:47.654Z,26.85
2023-05-21T10:46:46.014Z,26.32
2023-05-21T10:49:16.011Z,26.15
2023-05-21T10:51:53.733Z,26.16
2023-05-21T10:54:53.834Z,25.93
2023-05-21T10:58:06.243Z,25.92
2023-05-21T11:00:33.214Z,25.80
2023-05-21T11:03:01.323Z,25.64
2023-05-21T11:05:50.661Z,25.43
2023-05-21T11:08:22.503Z,25.12
2023-05-21T11:10:57.564Z,24.85
2023-05-21T11:13:50.870Z,25.03
2023-05-21T11:16:23.013Z,24.46
2023-05-21T11:18:50.036Z,24.04
2023-05-21T11:21:17.825Z,23.67
2023-05-21T11:23:50.591Z,23.47
2023-05-21T11:26:22.232Z,23.08
2023-05-21T11:29:04.243Z,22.83
2023-05-21T11:31:39.047Z,22.27
2023-05-21T11:34:28.195Z,22.25
2023-05-21T11:37:22.872Z,22.44
2023-05-21T11:39:50.218Z,22.32
2023-05-21T11:42:31.232Z,22.07
2023-05-21T11:44:59.465Z,22.27
2023-05-21T11:47:27.034Z,22.44
2023-05-21T11:49:55.396Z,22.77
2023-05-21T11:52:22.531Z,23.11
2023-05-21T11:54:56.846Z,23.52
2023-05-21T11:57:28.709Z,24.99
2023-05-21T11:59:55.782Z,27.30
2023-05-21T12:02:23.169Z,28.96
2023-05-21T12:04:50.363Z,29.95
2023-05-21T12:07:18.574Z,31.15
2023-05-21T12:09:49.714Z,31.60
2023-05-21T12:12:18.150Z,32.18
2023-05-21T12:14:53.130Z,32.86
2023-05-21T12:17:23.693Z,33.42
2023-05-21T12:19:54.610Z,33.20
2023-05-21T12:22:23.951Z,32.23
2023-05-21T12:24:50.902Z,31.59
2023-05-21T12:27:17.770Z,31.07
2023-05-21T12:29:46.945Z,31.18
2023-05-21T12:32:14.650Z,31.93
2023-05-21T12:34:52.869Z,32.53
2023-05-21T12:37:27.331Z,33.31
2023-05-21T12:39:55.119Z,32.97
2023-05-21T12:42:26.698Z,33.31
2023-05-21T12:44:53.838Z,35.50
2023-05-21T12:47:26.054Z,37.72
2023-05-21T12:49:59.826Z,39.94
2023-05-21T12:52:27.162Z,43.92
2023-05-21T12:54:55.962Z,47.67
2023-05-21T12:57:43.365Z,50.17
2023-05-21T13:00:11.149Z,51.63
2023-05-21T13:02:40.553Z,50.29
2023-05-21T13:05:09.277Z,52.23
2023-05-21T13:07:38.670Z,53.80
2023-05-21T13:10:06.018Z,56.48
2023-05-21T13:12:33.415Z,59.07
2023-05-21T13:15:07.513Z,62.00
2023-05-21T13:17:34.432Z,64.63
2023-05-21T13:20:20.818Z,66.21
2023-05-21T13:22:49.452Z,65.48
2023-05-21T13:25:21.868Z,67.71
2023-05-21T13:27:49.393Z,70.34
2023-05-21T13:30:16.396Z,71.74
2023-05-21T13:32:43.792Z,72.28
2023-05-21T13:35:11.570Z,74.06
2023-05-21T13:37:39.691Z,74.09
2023-05-21T13:40:10.320Z,73.76
2023-05-21T13:42:38.841Z,75.71
2023-05-21T13:45:12.777Z,77.96
2023-05-21T13:47:41.167Z,78.80
2023-05-21T13:50:08.833Z,77.70
2023-05-21T13:52:36.351Z,78.03
2023-05-21T13:55:03.524Z,78.97
2023-05-21T13:57:31.152Z,79.95
2023-05-21T13:59:58.704Z,81.07
2023-05-21T14:02:31.576Z,84.43
2023-05-21T14:04:59.286Z,86.45
2023-05-21T14:07:26.429Z,88.29
2023-05-21T14:09:53.498Z,91.75
2023-05-21T14:12:21.297Z,95.12
2023-05-21T14:14:49.275Z,97.75
2023-05-21T14:17:16.112Z,98.30
2023-05-21T14:19:43.133Z,96.48
2023-05-21T14:22:09.921Z,95.55
2023-05-21T14:24:42.010Z,96.27
2023-05-21T14:27:08.864Z,96.44
2023-05-21T14:29:35.804Z,95.43
2023-05-21T14:32:02.762Z,93.61
2023-05-21T14:34:30.393Z,93.73
2023-05-21T14:36:57.277Z,93.46
2023-05-21T14:39:24.312Z,93.39
2023-05-21T14:41:51.317Z,94.44
2023-05-21T14:44:19.265Z,95.22
2023-05-21T14:46:46.679Z,98.17
2023-05-21T14:49:13.982Z,99.40
2023-05-21T14:51:43.036Z,99.83
2023-05-21T14:54:15.110Z,99.72
2023-05-21T14:56:42.347Z,100.00
2023-05-21T14:59:12.160Z,100.00
2023-05-21T15:01:39.448Z,100.00
2023-05-21T15:04:07.342Z,100.00
2023-05-21T15:06:34.565Z,100.00
2023-05-21T15:09:06.619Z,100.00
2023-05-21T15:11:33.893Z,100.00
2023-05-21T15:14:01.002Z,100.00
2023-05-21T15:16:28.725Z,100.00
2023-05-21T15:18:56.096Z,100.00
2023-05-21T15:21:25.740Z,100.00
2023-05-21T15:23:54.334Z,100.00
2023-05-21T15:26:22.325Z,100.00
2023-05-21T15:28:49.273Z,100.00
2023-05-21T15:31:16.216Z,99.77
2023-05-21T15:33:43.288Z,96.92
2023-05-21T15:36:15.686Z,94.86
2023-05-21T15:38:42.533Z,99.36
2023-05-21T15:41:09.861Z,100.00
2023-05-21T15:43:37.640Z,100.00
2023-05-21T15:46:06.207Z,100.00
2023-05-21T15:48:34.417Z,100.00
2023-05-21T15:51:01.343Z,100.00
2023-05-21T15:53:28.171Z,100.00
2023-05-21T15:55:56.534Z,100.00
2023-05-21T15:58:23.627Z,100.00
2023-05-21T16:00:50.690Z,100.00
2023-05-21T16:03:17.716Z,100.00
2023-05-21T16:05:44.684Z,100.00
2023-05-21T16:08:11.719Z,100.00
2023-05-21T16:10:40.000Z,100.00
2023-05-21T16:13:07.997Z,100.00
2023-05-21T16:15:35.178Z,100.00
2023-05-21T16:18:02.520Z,100.00
2023-05-21T16:20:30.527Z,100.00
2023-05-21T16:22:57.940Z,100.00
2023-05-21T16:25:25.213Z,100.00
2023-05-21T16:27:52.214Z,100.00
2023-05-21T16:30:19.402Z,100.00
2023-05-21T16:32:46.842Z,100.00
2023-05-21T16:35:13.903Z,100.00
2023-05-21T16:37:41.040Z,100.00
2023-05-21T16:40:08.833Z,100.00
2023-05-21T16:42:36.606Z,100.00
2023-05-21T16:45:03.754Z,100.00
2023-05-21T16:47:31.146Z,100.00
2023-05-21T16:49:58.239Z,100.00
2023-05-21T16:52:25.945Z,100.00
2023-05-21T16:54:52.764Z,100.00
2023-05-21T16:57:19.728Z,100.00
2023-05-21T16:59:46.665Z,100.00
2023-05-21T17:02:13.825Z,100.00
2023-05-21T17:04:40.868Z,100.00
2023-05-21T17:07:08.374Z,100.00
2023-05-21T17:09:35.476Z,100.00
2023-05-21T17:12:03.199Z,100.00
2023-05-21T17:14:34.287Z,100.00
2023-05-21T17:17:02.109Z,100.00
2023-05-21T17:19:34.416Z,100.00
2023-05-21T17:22:01.686Z,100.00
2023-05-21T17:24:28.833Z,100.00
2023-05-21T17:26:55.955Z,100.00
2023-05-21T17:29:28.182Z,100.00
2023-05-21T17:31:55.379Z,100.00
2023-05-21T17:34:26.058Z,100.00
2023-05-21T17:36:53.449Z,100.00
2023-05-21T17:39:20.271Z,100.00
2023-05-21T17:41:52.496Z,100.00
2023-05-21T17:44:19.589Z,100.00
2023-05-21T17:46:50.664Z,100.00
2023-05-21T17:49:17.950Z,100.00
2023-05-21T17:51:45.027Z,100.00
2023-05-21T17:54:17.134Z,100.00
2023-05-21T17:56:46.215Z,100.00
2023-05-21T17:59:13.579Z,100.00
2023-05-21T18:01:40.736Z,100.00
2023-05-21T18:04:11.681Z,100.00
2023-05-21T18:06:39.120Z,100.00
2023-05-21T18:09:13.846Z,100.00
2023-05-21T18:11:43.047Z,100.00
2023-05-21T18:14:10.040Z,100.00
2023-05-21T18:16:37.056Z,100.00
2023-05-21T18:19:09.205Z,100.00
2023-05-21T18:21:36.811Z,100.00
2023-05-21T18:24:03.976Z,100.00
2023-05-21T18:26:31.118Z,100.00
2023-05-21T18:28:58.107Z,100.00
2023-05-21T18:31:25.457Z,100.00
2023-05-21T18:33:52.390Z,100.00
2023-05-21T18:36:19.427Z,100.00
2023-05-21T18:38:47.798Z,100.00
2023-05-21T18:41:14.749Z,100.00
2023-05-21T18:43:41.798Z,100.00
2023-05-21T18:46:08.805Z,100.00
2023-05-21T18:48:36.653Z,100.00
2023-05-21T18:51:03.544Z,100.00
2023-05-21T18:53:35.665Z,100.00
2023-05-21T18:56:04.288Z,100.00
2023-05-21T18:58:32.550Z,100.00
2023-05-21T19:00:59.580Z,100.00
2023-05-21T19:03:27.351Z,100.00
2023-05-21T19:05:54.524Z,100.00
2023-05-21T19:08:22.585Z,100.00
2023-05-21T19:10:49.863Z,100.00
2023-05-21T19:13:16.752Z,100.00
2023-05-21T19:15:46.428Z,100.00
2023-05-21T19:18:13.852Z,100.00
2023-05-21T19:20:40.653Z,100.00
2023-05-21T19:23:07.876Z,100.00
2023-05-21T19:25:35.234Z,100.00
2023-05-21T19:28:02.162Z,100.00
2023-05-21T19:30:36.123Z,100.00
2023-05-21T19:33:03.673Z,100.00
2023-05-21T19:35:30.627Z,100.00
2023-05-21T19:38:05.765Z,100.00
2023-05-21T19:40:33.040Z,100.00
2023-05-21T19:42:59.965Z,100.00
2023-05-21T19:45:27.001Z,100.00
2023-05-21T19:47:54.040Z,100.00
2023-05-21T19:50:21.564Z,100.00
2023-05-21T19:52:48.562Z,100.00
2023-05-21T19:55:19.610Z,100.00
2023-05-21T19:57:46.536Z,100.00
2023-05-21T20:00:14.377Z,100.00
2023-05-21T20:02:43.458Z,100.00
2023-05-21T20:05:15.774Z,100.00
2023-05-21T20:07:43.379Z,100.00
2023-05-21T20:10:10.348Z,100.00
2023-05-21T20:12:38.674Z,100.00
2023-05-21T20:15:06.499Z,100.00
2023-05-21T20:17:33.751Z,100.00
2023-05-21T20:20:00.951Z,100.00
2023-05-21T20:22:27.845Z,100.00
2023-05-21T20:24:55.392Z,100.00
2023-05-21T20:27:22.696Z,100.00
2023-05-21T20:29:49.688Z,100.00
2023-05-21T20:32:17.386Z,100.00
2023-05-21T20:34:58.518Z,100.00
2023-05-21T20:37:31.901Z,100.00
2023-05-21T20:39:59.412Z,100.00
2023-05-21T20:42:28.000Z,100.00
2023-05-21T20:44:54.988Z,100.00
2023-05-21T20:47:23.310Z,100.00
2023-05-21T20:49:54.418Z,100.00
2023-05-21T20:52:31.532Z,100.00
2023-05-21T20:54:59.046Z,100.00
2023-05-21T20:57:27.437Z,100.00
2023-05-21T20:59:54.568Z,100.00
2023-05-21T21:02:22.485Z,100.00
2023-05-21T21:04:49.955Z,100.00
2023-05-21T21:07:21.987Z,100.00
2023-05-21T21:09:48.900Z,100.00
2023-05-21T21:12:25.864Z,100.00
2023-05-21T21:14:54.832Z,100.00
2023-05-21T21:17:22.226Z,100.00
2023-05-21T21:19:49.167Z,100.00
2023-05-21T21:22:22.797Z,100.00
2023-05-21T21:24:50.434Z,100.00
2023-05-21T21:27:17.840Z,100.00
2023-05-21T21:29:45.969Z,100.00
2023-05-21T21:32:12.930Z,100.00
2023-05-21T21:34:40.555Z,100.00
2023-05-21T21:37:07.634Z,100.00
2023-05-21T21:39:34.949Z,100.00
2023-05-21T21:42:02.081Z,100.00
2023-05-21T21:44:29.473Z,100.00
2023-05-21T21:46:56.410Z,100.00
2023-05-21T21:49:23.767Z,100.00
2023-05-21T21:51:51.394Z,100.00
2023-05-21T21:54:18.412Z,100.00
2023-05-21T21:56:45.422Z,100.00
2023-05-21T21:59:12.337Z,100.00
2023-05-21T22:01:39.519Z,100.00
2023-05-21T22:04:06.704Z,100.00
2023-05-21T22:06:34.731Z,100.00
2023-05-21T22:09:01.756Z,100.00
2023-05-21T22:11:28.858Z,100.00
2023-05-21T22:13:56.885Z,100.00
2023-05-21T22:16:24.318Z,100.00
2023-05-21T22:18:53.665Z,100.00
2023-05-21T22:21:20.969Z,100.00
2023-05-21T22:23:48.325Z,100.00
2023-05-21T22:26:21.564Z,100.00
2023-05-21T22:28:49.100Z,100.00
2023-05-21T22:31:16.032Z,100.00
2023-05-21T22:33:43.018Z,100.00
2023-05-21T22:36:09.916Z,100.00
2023-05-21T22:38:37.913Z,100.00
2023-05-21T22:41:10.592Z,100.00
2023-05-21T22:43:37.719Z,100.00
2023-05-21T22:46:04.774Z,100.00
2023-05-21T22:48:33.550Z,100.00
2023-05-21T22:51:01.174Z,100.00
2023-05-21T22:53:28.584Z,100.00
2023-05-21T22:55:55.532Z,100.00
2023-05-21T22:58:22.553Z,100.00
2023-05-21T23:00:49.424Z,100.00
2023-05-21T23:03:17.068Z,100.00
2023-05-21T23:05:43.989Z,100.00
2023-05-21T23:08:10.946Z,100.00
2023-05-21T23:10:39.326Z,100.00
2023-05-21T23:13:07.046Z,100.00
2023-05-21T23:15:38.309Z,100.00
2023-05-21T23:18:07.365Z,100.00
2023-05-21T23:20:34.844Z,100.00
2023-05-21T23:23:07.600Z,100.00
2023-05-21T23:25:35.372Z,100.00
2023-05-21T23:28:03.817Z,100.00
2023-05-21T23:30:36.072Z,100.00
2023-05-21T23:33:03.249Z,100.00
2023-05-21T23:35:30.763Z,100.00
2023-05-21T23:37:57.650Z,100.00
2023-05-21T23:40:24.518Z,100.00
2023-05-21T23:42:51.501Z,100.00
2023-05-21T23:45:18.692Z,100.00
2023-05-21T23:47:46.322Z,100.00
2023-05-21T23:50:13.142Z,100.00
2023-05-21T23:52:41.022Z,100.00
2023-05-21T23:55:08.299Z,100.00
2023-05-21T23:57:36.157Z,100.00
